sensor_id;sensor_type;location;lat;lon;timestamp;pressure;altitude;pressure_sealevel;temperature;humidity
83559;BME280;73527;47.882;7.718;2024-02-23T00:02:17;96806.97;;;8.87;74.96
83559;BME280;73527;47.882;7.718;2024-02-23T00:04:42;96806.34;;;8.92;73.50
83559;BME280;73527;47.882;7.718;2024-02-23T00:07:08;96819.97;;;8.59;74.33
83559;BME280;73527;47.882;7.718;2024-02-23T00:09:33;96830.16;;;8.44;74.47
83559;BME280;73527;47.882;7.718;2024-02-23T00:11:59;96831.25;;;8.30;74.58
83559;BME280;73527;47.882;7.718;2024-02-23T00:14:24;96834.13;;;8.60;73.39
83559;BME280;73527;47.882;7.718;2024-02-23T00:16:50;96850.97;;;8.22;73.67
83559;BME280;73527;47.882;7.718;2024-02-23T00:19:15;96847.66;;;8.27;73.53
83559;BME280;73527;47.882;7.718;2024-02-23T00:21:44;96844.25;;;8.51;72.18
83559;BME280;73527;47.882;7.718;2024-02-23T00:24:12;96842.53;;;8.32;72.42
83559;BME280;73527;47.882;7.718;2024-02-23T00:26:38;96839.34;;;8.48;72.70
83559;BME280;73527;47.882;7.718;2024-02-23T00:29:03;96847.47;;;8.28;71.72
83559;BME280;73527;47.882;7.718;2024-02-23T00:31:29;96848.91;;;8.62;70.61
83559;BME280;73527;47.882;7.718;2024-02-23T00:33:54;96840.16;;;8.49;71.33
83559;BME280;73527;47.882;7.718;2024-02-23T00:36:19;96837.28;;;8.50;70.56
83559;BME280;73527;47.882;7.718;2024-02-23T00:38:45;96859.16;;;8.27;71.78
83559;BME280;73527;47.882;7.718;2024-02-23T00:41:10;96848.09;;;8.30;71.71
83559;BME280;73527;47.882;7.718;2024-02-23T00:43:40;96859.59;;;8.31;70.66
83559;BME280;73527;47.882;7.718;2024-02-23T00:46:07;96856.50;;;8.34;71.06
83559;BME280;73527;47.882;7.718;2024-02-23T00:48:33;96882.66;;;8.06;71.67
83559;BME280;73527;47.882;7.718;2024-02-23T00:50:58;96860.63;;;8.23;70.48
83559;BME280;73527;47.882;7.718;2024-02-23T00:53:23;96885.03;;;8.27;70.01
83559;BME280;73527;47.882;7.718;2024-02-23T00:55:49;96873.88;;;8.43;69.31
83559;BME280;73527;47.882;7.718;2024-02-23T00:58:14;96889.63;;;8.07;71.17
83559;BME280;73527;47.882;7.718;2024-02-23T01:00:41;96883.38;;;8.26;70.88
83559;BME280;73527;47.882;7.718;2024-02-23T01:03:06;96871.38;;;8.48;68.68
83559;BME280;73527;47.882;7.718;2024-02-23T01:05:32;96886.63;;;7.90;69.98
83559;BME280;73527;47.882;7.718;2024-02-23T01:07:57;96894.44;;;8.36;69.72
83559;BME280;73527;47.882;7.718;2024-02-23T01:10:23;96900.81;;;7.77;71.73
83559;BME280;73527;47.882;7.718;2024-02-23T01:12:48;96885.81;;;7.83;70.61
83559;BME280;73527;47.882;7.718;2024-02-23T01:15:14;96888.06;;;7.86;70.60
83559;BME280;73527;47.882;7.718;2024-02-23T01:17:39;96886.38;;;8.05;70.39
83559;BME280;73527;47.882;7.718;2024-02-23T01:20:05;96885.94;;;8.08;68.40
83559;BME280;73527;47.882;7.718;2024-02-23T01:22:30;96882.22;;;8.09;68.52
83559;BME280;73527;47.882;7.718;2024-02-23T01:24:56;96874.50;;;8.01;68.21
83559;BME280;73527;47.882;7.718;2024-02-23T01:27:21;96882.31;;;7.89;69.34
83559;BME280;73527;47.882;7.718;2024-02-23T01:29:47;96889.19;;;7.59;69.79
83559;BME280;73527;47.882;7.718;2024-02-23T01:32:12;96884.31;;;8.07;68.70
83559;BME280;73527;47.882;7.718;2024-02-23T01:34:38;96886.06;;;7.81;68.79
83559;BME280;73527;47.882;7.718;2024-02-23T01:37:03;96884.78;;;7.91;69.26
83559;BME280;73527;47.882;7.718;2024-02-23T01:39:29;96879.41;;;8.04;69.16
83559;BME280;73527;47.882;7.718;2024-02-23T01:41:54;96879.91;;;7.74;69.79
83559;BME280;73527;47.882;7.718;2024-02-23T01:44:20;96880.53;;;7.76;70.74
83559;BME280;73527;47.882;7.718;2024-02-23T01:46:46;96875.28;;;8.08;69.62
83559;BME280;73527;47.882;7.718;2024-02-23T01:49:13;96873.75;;;7.74;71.29
83559;BME280;73527;47.882;7.718;2024-02-23T01:51:39;96876.00;;;7.83;69.40
83559;BME280;73527;47.882;7.718;2024-02-23T01:54:05;96870.50;;;7.72;70.62
83559;BME280;73527;47.882;7.718;2024-02-23T01:56:32;96879.94;;;7.68;69.75
83559;BME280;73527;47.882;7.718;2024-02-23T01:58:58;96869.25;;;8.19;68.04
83559;BME280;73527;47.882;7.718;2024-02-23T02:01:24;96866.94;;;7.91;69.22
83559;BME280;73527;47.882;7.718;2024-02-23T02:03:50;96863.44;;;7.91;69.64
83559;BME280;73527;47.882;7.718;2024-02-23T02:06:15;96862.94;;;8.13;69.02
83559;BME280;73527;47.882;7.718;2024-02-23T02:08:40;96861.63;;;8.22;69.53
83559;BME280;73527;47.882;7.718;2024-02-23T02:11:06;96868.28;;;8.07;70.05
83559;BME280;73527;47.882;7.718;2024-02-23T02:13:31;96875.31;;;8.01;69.78
83559;BME280;73527;47.882;7.718;2024-02-23T02:16:00;96865.34;;;8.59;67.60
83559;BME280;73527;47.882;7.718;2024-02-23T02:18:26;96861.03;;;8.58;67.21
83559;BME280;73527;47.882;7.718;2024-02-23T02:20:56;96857.59;;;8.51;67.91
83559;BME280;73527;47.882;7.718;2024-02-23T02:23:23;96860.19;;;8.26;68.85
83559;BME280;73527;47.882;7.718;2024-02-23T02:25:52;96845.44;;;8.30;67.56
83559;BME280;73527;47.882;7.718;2024-02-23T02:28:18;96856.28;;;8.92;66.39
83559;BME280;73527;47.882;7.718;2024-02-23T02:30:44;96842.44;;;8.76;65.23
83559;BME280;73527;47.882;7.718;2024-02-23T02:33:09;96845.41;;;9.11;64.66
83559;BME280;73527;47.882;7.718;2024-02-23T02:35:34;96838.47;;;9.04;64.77
83559;BME280;73527;47.882;7.718;2024-02-23T02:38:00;96843.50;;;8.94;64.90
83559;BME280;73527;47.882;7.718;2024-02-23T02:40:25;96822.06;;;9.00;64.71
83559;BME280;73527;47.882;7.718;2024-02-23T02:42:50;96828.56;;;8.61;65.56
83559;BME280;73527;47.882;7.718;2024-02-23T02:45:16;96832.00;;;8.68;67.34
83559;BME280;73527;47.882;7.718;2024-02-23T02:47:42;96819.44;;;8.75;66.69
83559;BME280;73527;47.882;7.718;2024-02-23T02:50:08;96798.38;;;8.61;66.88
83559;BME280;73527;47.882;7.718;2024-02-23T02:52:34;96806.22;;;8.24;68.39
83559;BME280;73527;47.882;7.718;2024-02-23T02:54:59;96811.97;;;8.28;67.49
83559;BME280;73527;47.882;7.718;2024-02-23T02:57:24;96799.50;;;8.15;67.42
83559;BME280;73527;47.882;7.718;2024-02-23T02:59:50;96810.44;;;8.07;69.13
83559;BME280;73527;47.882;7.718;2024-02-23T03:02:15;96803.59;;;8.18;68.13
83559;BME280;73527;47.882;7.718;2024-02-23T03:04:48;96802.69;;;8.37;67.91
83559;BME280;73527;47.882;7.718;2024-02-23T03:07:13;96779.44;;;8.44;67.38
83559;BME280;73527;47.882;7.718;2024-02-23T03:09:39;96793.34;;;8.15;68.46
83559;BME280;73527;47.882;7.718;2024-02-23T03:12:04;96790.53;;;8.66;66.43
83559;BME280;73527;47.882;7.718;2024-02-23T03:14:29;96796.97;;;8.27;67.28
83559;BME280;73527;47.882;7.718;2024-02-23T03:16:55;96795.56;;;8.24;67.68
83559;BME280;73527;47.882;7.718;2024-02-23T03:19:20;96804.97;;;8.27;67.64
83559;BME280;73527;47.882;7.718;2024-02-23T03:21:47;96791.88;;;8.19;67.69
83559;BME280;73527;47.882;7.718;2024-02-23T03:24:13;96812.34;;;8.31;67.77
83559;BME280;73527;47.882;7.718;2024-02-23T03:26:38;96794.06;;;7.97;68.36
83559;BME280;73527;47.882;7.718;2024-02-23T03:29:03;96771.91;;;7.97;67.91
83559;BME280;73527;47.882;7.718;2024-02-23T03:31:29;96775.09;;;8.12;67.27
83559;BME280;73527;47.882;7.718;2024-02-23T03:33:54;96775.00;;;7.94;67.88
83559;BME280;73527;47.882;7.718;2024-02-23T03:36:19;96781.16;;;7.94;67.18
83559;BME280;73527;47.882;7.718;2024-02-23T03:38:45;96773.16;;;7.94;67.50
83559;BME280;73527;47.882;7.718;2024-02-23T03:41:10;96784.97;;;8.11;67.86
83559;BME280;73527;47.882;7.718;2024-02-23T03:43:35;96783.25;;;7.85;67.55
83559;BME280;73527;47.882;7.718;2024-02-23T03:46:02;96796.41;;;7.80;66.48
83559;BME280;73527;47.882;7.718;2024-02-23T03:48:28;96797.41;;;7.86;66.77
83559;BME280;73527;47.882;7.718;2024-02-23T03:50:53;96804.28;;;8.07;65.86
83559;BME280;73527;47.882;7.718;2024-02-23T03:53:19;96809.31;;;7.83;66.10
83559;BME280;73527;47.882;7.718;2024-02-23T03:55:44;96800.56;;;8.14;65.32
83559;BME280;73527;47.882;7.718;2024-02-23T03:58:10;96794.19;;;8.71;63.23
83559;BME280;73527;47.882;7.718;2024-02-23T04:00:35;96794.75;;;8.24;62.78
83559;BME280;73527;47.882;7.718;2024-02-23T04:03:00;96808.94;;;8.18;64.57
83559;BME280;73527;47.882;7.718;2024-02-23T04:05:26;96810.50;;;7.94;63.33
83559;BME280;73527;47.882;7.718;2024-02-23T04:07:51;96800.47;;;8.27;62.78
83559;BME280;73527;47.882;7.718;2024-02-23T04:10:17;96797.69;;;8.09;63.25
83559;BME280;73527;47.882;7.718;2024-02-23T04:12:46;96796.25;;;7.75;63.18
83559;BME280;73527;47.882;7.718;2024-02-23T04:15:11;96797.59;;;8.29;62.14
83559;BME280;73527;47.882;7.718;2024-02-23T04:17:37;96789.44;;;8.17;62.15
83559;BME280;73527;47.882;7.718;2024-02-23T04:20:06;96794.47;;;8.01;63.04
83559;BME280;73527;47.882;7.718;2024-02-23T04:22:32;96799.81;;;8.01;63.52
83559;BME280;73527;47.882;7.718;2024-02-23T04:24:57;96813.63;;;8.22;63.38
83559;BME280;73527;47.882;7.718;2024-02-23T04:27:22;96818.34;;;7.82;63.73
83559;BME280;73527;47.882;7.718;2024-02-23T04:29:48;96824.06;;;7.86;63.50
83559;BME280;73527;47.882;7.718;2024-02-23T04:32:13;96828.81;;;8.22;63.13
83559;BME280;73527;47.882;7.718;2024-02-23T04:34:38;96816.03;;;8.37;61.91
83559;BME280;73527;47.882;7.718;2024-02-23T04:37:05;96818.75;;;8.24;60.88
83559;BME280;73527;47.882;7.718;2024-02-23T04:39:31;96823.84;;;7.94;62.04
83559;BME280;73527;47.882;7.718;2024-02-23T04:41:56;96818.16;;;8.15;61.50
83559;BME280;73527;47.882;7.718;2024-02-23T04:44:22;96814.00;;;8.32;61.13
83559;BME280;73527;47.882;7.718;2024-02-23T04:46:47;96815.03;;;8.25;60.63
83559;BME280;73527;47.882;7.718;2024-02-23T04:49:13;96825.81;;;8.05;62.27
83559;BME280;73527;47.882;7.718;2024-02-23T04:51:38;96803.81;;;8.16;61.53
83559;BME280;73527;47.882;7.718;2024-02-23T04:54:04;96820.88;;;8.47;60.62
83559;BME280;73527;47.882;7.718;2024-02-23T04:56:29;96821.63;;;8.60;61.02
83559;BME280;73527;47.882;7.718;2024-02-23T04:58:55;96813.19;;;8.25;61.48
83559;BME280;73527;47.882;7.718;2024-02-23T05:01:20;96816.97;;;8.74;59.71
83559;BME280;73527;47.882;7.718;2024-02-23T05:03:45;96816.28;;;8.60;61.16
83559;BME280;73527;47.882;7.718;2024-02-23T05:06:11;96812.00;;;7.83;62.55
83559;BME280;73527;47.882;7.718;2024-02-23T05:08:37;96808.91;;;7.86;63.22
83559;BME280;73527;47.882;7.718;2024-02-23T05:11:03;96800.72;;;7.81;62.70
83559;BME280;73527;47.882;7.718;2024-02-23T05:13:28;96816.66;;;7.95;64.09
83559;BME280;73527;47.882;7.718;2024-02-23T05:15:57;96798.59;;;7.97;63.21
83559;BME280;73527;47.882;7.718;2024-02-23T05:18:22;96802.19;;;8.09;62.96
83559;BME280;73527;47.882;7.718;2024-02-23T05:20:48;96793.81;;;8.05;63.78
83559;BME280;73527;47.882;7.718;2024-02-23T05:23:13;96783.28;;;7.79;63.41
83559;BME280;73527;47.882;7.718;2024-02-23T05:25:41;96777.50;;;7.88;63.43
83559;BME280;73527;47.882;7.718;2024-02-23T05:28:06;96786.53;;;8.19;62.38
83559;BME280;73527;47.882;7.718;2024-02-23T05:30:32;96772.47;;;8.05;62.12
83559;BME280;73527;47.882;7.718;2024-02-23T05:32:57;96783.75;;;8.07;62.43
83559;BME280;73527;47.882;7.718;2024-02-23T05:35:28;96794.69;;;7.93;63.19
83559;BME280;73527;47.882;7.718;2024-02-23T05:37:54;96786.94;;;7.91;62.11
83559;BME280;73527;47.882;7.718;2024-02-23T05:40:20;96794.66;;;7.61;61.75
83559;BME280;73527;47.882;7.718;2024-02-23T05:42:46;96788.09;;;8.02;61.80
83559;BME280;73527;47.882;7.718;2024-02-23T05:45:11;96792.03;;;7.93;60.90
83559;BME280;73527;47.882;7.718;2024-02-23T05:47:40;96797.97;;;8.01;61.12
83559;BME280;73527;47.882;7.718;2024-02-23T05:50:08;96800.59;;;8.39;60.59
83559;BME280;73527;47.882;7.718;2024-02-23T05:52:34;96792.97;;;7.73;62.19
83559;BME280;73527;47.882;7.718;2024-02-23T05:55:00;96812.69;;;7.66;62.75
83559;BME280;73527;47.882;7.718;2024-02-23T05:57:28;96807.50;;;8.15;59.86
83559;BME280;73527;47.882;7.718;2024-02-23T05:59:54;96812.25;;;8.13;60.58
83559;BME280;73527;47.882;7.718;2024-02-23T06:02:21;96805.78;;;8.34;60.20
83559;BME280;73527;47.882;7.718;2024-02-23T06:04:46;96805.59;;;8.29;60.80
83559;BME280;73527;47.882;7.718;2024-02-23T06:07:13;96801.66;;;8.00;59.42
83559;BME280;73527;47.882;7.718;2024-02-23T06:09:38;96805.78;;;7.96;60.80
83559;BME280;73527;47.882;7.718;2024-02-23T06:12:05;96793.25;;;7.97;59.89
83559;BME280;73527;47.882;7.718;2024-02-23T06:14:30;96811.47;;;8.06;59.90
83559;BME280;73527;47.882;7.718;2024-02-23T06:16:56;96799.41;;;7.53;60.06
83559;BME280;73527;47.882;7.718;2024-02-23T06:19:21;96808.59;;;8.08;60.15
83559;BME280;73527;47.882;7.718;2024-02-23T06:21:49;96794.91;;;7.98;59.48
83559;BME280;73527;47.882;7.718;2024-02-23T06:24:16;96798.00;;;8.26;59.33
83559;BME280;73527;47.882;7.718;2024-02-23T06:26:42;96790.72;;;8.08;60.42
83559;BME280;73527;47.882;7.718;2024-02-23T06:29:07;96790.78;;;8.33;58.39
83559;BME280;73527;47.882;7.718;2024-02-23T06:31:38;96784.75;;;8.13;58.85
83559;BME280;73527;47.882;7.718;2024-02-23T06:34:04;96790.75;;;8.02;59.18
83559;BME280;73527;47.882;7.718;2024-02-23T06:36:29;96790.72;;;8.08;58.91
83559;BME280;73527;47.882;7.718;2024-02-23T06:38:55;96786.34;;;8.20;58.09
83559;BME280;73527;47.882;7.718;2024-02-23T06:41:20;96794.31;;;8.27;58.50
83559;BME280;73527;47.882;7.718;2024-02-23T06:43:46;96799.41;;;8.35;57.98
83559;BME280;73527;47.882;7.718;2024-02-23T06:46:11;96799.25;;;8.23;58.54
83559;BME280;73527;47.882;7.718;2024-02-23T06:48:36;96802.88;;;8.35;58.68
83559;BME280;73527;47.882;7.718;2024-02-23T06:51:05;96802.94;;;8.29;58.33
83559;BME280;73527;47.882;7.718;2024-02-23T06:53:34;96810.66;;;8.44;58.18
83559;BME280;73527;47.882;7.718;2024-02-23T06:55:59;96821.72;;;7.65;60.08
83559;BME280;73527;47.882;7.718;2024-02-23T06:58:25;96823.03;;;8.31;57.84
83559;BME280;73527;47.882;7.718;2024-02-23T07:00:51;96816.41;;;8.65;57.74
83559;BME280;73527;47.882;7.718;2024-02-23T07:03:16;96831.69;;;8.20;57.76
83559;BME280;73527;47.882;7.718;2024-02-23T07:05:41;96815.59;;;8.40;57.96
83559;BME280;73527;47.882;7.718;2024-02-23T07:08:10;96823.91;;;8.57;56.49
83559;BME280;73527;47.882;7.718;2024-02-23T07:10:36;96821.56;;;8.67;56.26
83559;BME280;73527;47.882;7.718;2024-02-23T07:13:01;96811.63;;;8.74;56.57
83559;BME280;73527;47.882;7.718;2024-02-23T07:15:27;96820.59;;;8.23;57.98
83559;BME280;73527;47.882;7.718;2024-02-23T07:17:52;96814.50;;;8.10;57.22
83559;BME280;73527;47.882;7.718;2024-02-23T07:20:17;96804.56;;;8.30;57.20
83559;BME280;73527;47.882;7.718;2024-02-23T07:22:46;96805.59;;;8.60;57.93
83559;BME280;73527;47.882;7.718;2024-02-23T07:25:15;96806.03;;;8.19;56.63
83559;BME280;73527;47.882;7.718;2024-02-23T07:27:41;96812.19;;;8.20;58.35
83559;BME280;73527;47.882;7.718;2024-02-23T07:30:07;96811.31;;;8.32;57.05
83559;BME280;73527;47.882;7.718;2024-02-23T07:32:32;96814.19;;;8.38;56.42
83559;BME280;73527;47.882;7.718;2024-02-23T07:34:58;96824.38;;;8.97;55.33
83559;BME280;73527;47.882;7.718;2024-02-23T07:37:26;96827.03;;;8.97;55.49
83559;BME280;73527;47.882;7.718;2024-02-23T07:39:51;96819.00;;;8.54;56.19
83559;BME280;73527;47.882;7.718;2024-02-23T07:42:16;96822.00;;;9.07;55.60
83559;BME280;73527;47.882;7.718;2024-02-23T07:44:44;96817.88;;;8.61;56.61
83559;BME280;73527;47.882;7.718;2024-02-23T07:47:09;96813.97;;;8.88;54.89
83559;BME280;73527;47.882;7.718;2024-02-23T07:49:35;96819.88;;;8.72;54.90
83559;BME280;73527;47.882;7.718;2024-02-23T07:52:00;96813.66;;;9.39;53.81
83559;BME280;73527;47.882;7.718;2024-02-23T07:54:25;96823.53;;;9.21;53.39
83559;BME280;73527;47.882;7.718;2024-02-23T07:56:51;96816.09;;;9.59;52.85
83559;BME280;73527;47.882;7.718;2024-02-23T07:59:16;96816.56;;;9.38;53.90
83559;BME280;73527;47.882;7.718;2024-02-23T08:01:41;96795.69;;;9.47;52.12
83559;BME280;73527;47.882;7.718;2024-02-23T08:04:07;96800.06;;;9.77;52.03
83559;BME280;73527;47.882;7.718;2024-02-23T08:06:32;96813.00;;;9.62;52.14
83559;BME280;73527;47.882;7.718;2024-02-23T08:08:58;96797.94;;;9.98;51.76
83559;BME280;73527;47.882;7.718;2024-02-23T08:11:23;96787.56;;;9.89;51.24
83559;BME280;73527;47.882;7.718;2024-02-23T08:13:48;96799.16;;;9.83;49.67
83559;BME280;73527;47.882;7.718;2024-02-23T08:16:16;96790.09;;;9.66;51.08
83559;BME280;73527;47.882;7.718;2024-02-23T08:18:41;96789.47;;;10.01;49.40
83559;BME280;73527;47.882;7.718;2024-02-23T08:21:06;96788.78;;;10.35;49.04
83559;BME280;73527;47.882;7.718;2024-02-23T08:23:32;96786.81;;;10.30;49.31
83559;BME280;73527;47.882;7.718;2024-02-23T08:25:58;96780.19;;;10.33;49.01
83559;BME280;73527;47.882;7.718;2024-02-23T08:28:24;96770.03;;;10.35;48.56
83559;BME280;73527;47.882;7.718;2024-02-23T08:30:49;96784.69;;;9.73;50.15
83559;BME280;73527;47.882;7.718;2024-02-23T08:33:14;96774.38;;;10.36;48.67
83559;BME280;73527;47.882;7.718;2024-02-23T08:35:40;96782.00;;;10.21;49.30
83559;BME280;73527;47.882;7.718;2024-02-23T08:38:05;96776.06;;;10.19;48.02
83559;BME280;73527;47.882;7.718;2024-02-23T08:40:31;96768.69;;;10.67;48.84
83559;BME280;73527;47.882;7.718;2024-02-23T08:42:56;96776.75;;;10.79;48.19
83559;BME280;73527;47.882;7.718;2024-02-23T08:45:21;96775.03;;;11.08;47.85
83559;BME280;73527;47.882;7.718;2024-02-23T08:47:47;96775.13;;;10.78;46.96
83559;BME280;73527;47.882;7.718;2024-02-23T08:50:12;96776.75;;;10.90;46.95
83559;BME280;73527;47.882;7.718;2024-02-23T08:52:38;96780.25;;;10.68;47.53
83559;BME280;73527;47.882;7.718;2024-02-23T08:55:03;96767.88;;;11.48;47.30
83559;BME280;73527;47.882;7.718;2024-02-23T08:57:29;96769.94;;;11.58;45.93
83559;BME280;73527;47.882;7.718;2024-02-23T08:59:54;96771.88;;;10.76;47.41
83559;BME280;73527;47.882;7.718;2024-02-23T09:02:22;96770.94;;;11.68;46.27
83559;BME280;73527;47.882;7.718;2024-02-23T09:04:48;96770.06;;;11.51;46.34
83559;BME280;73527;47.882;7.718;2024-02-23T09:07:13;96764.84;;;11.33;46.35
83559;BME280;73527;47.882;7.718;2024-02-23T09:09:39;96755.09;;;11.67;45.41
83559;BME280;73527;47.882;7.718;2024-02-23T09:12:05;96759.56;;;11.49;47.01
83559;BME280;73527;47.882;7.718;2024-02-23T09:14:32;96749.31;;;11.46;46.12
83559;BME280;73527;47.882;7.718;2024-02-23T09:16:58;96747.19;;;11.60;45.86
83559;BME280;73527;47.882;7.718;2024-02-23T09:19:23;96743.28;;;11.28;45.79
83559;BME280;73527;47.882;7.718;2024-02-23T09:21:49;96735.63;;;11.60;46.60
83559;BME280;73527;47.882;7.718;2024-02-23T09:24:14;96734.91;;;12.04;45.21
83559;BME280;73527;47.882;7.718;2024-02-23T09:26:40;96725.91;;;12.10;44.50
83559;BME280;73527;47.882;7.718;2024-02-23T09:29:05;96733.91;;;11.54;44.99
83559;BME280;73527;47.882;7.718;2024-02-23T09:31:30;96732.53;;;12.52;43.31
83559;BME280;73527;47.882;7.718;2024-02-23T09:33:57;96735.22;;;12.86;42.93
83559;BME280;73527;47.882;7.718;2024-02-23T09:36:23;96734.56;;;12.45;42.49
83559;BME280;73527;47.882;7.718;2024-02-23T09:38:48;96726.19;;;12.59;44.05
83559;BME280;73527;47.882;7.718;2024-02-23T09:41:21;96727.50;;;12.11;43.93
83559;BME280;73527;47.882;7.718;2024-02-23T09:43:47;96727.16;;;12.08;45.07
83559;BME280;73527;47.882;7.718;2024-02-23T09:46:17;96726.00;;;12.32;43.53
83559;BME280;73527;47.882;7.718;2024-02-23T09:48:47;96724.91;;;13.16;43.08
83559;BME280;73527;47.882;7.718;2024-02-23T09:51:15;96733.75;;;12.45;43.54
83559;BME280;73527;47.882;7.718;2024-02-23T09:53:41;96723.34;;;13.03;43.99
83559;BME280;73527;47.882;7.718;2024-02-23T09:56:08;96711.19;;;12.79;41.37
83559;BME280;73527;47.882;7.718;2024-02-23T09:58:36;96717.47;;;12.68;43.35
83559;BME280;73527;47.882;7.718;2024-02-23T10:01:02;96710.41;;;13.61;43.72
83559;BME280;73527;47.882;7.718;2024-02-23T10:03:28;96710.19;;;12.85;43.20
83559;BME280;73527;47.882;7.718;2024-02-23T10:05:58;96713.78;;;12.41;42.90
83559;BME280;73527;47.882;7.718;2024-02-23T10:08:25;96710.72;;;12.49;43.32
83559;BME280;73527;47.882;7.718;2024-02-23T10:10:50;96705.97;;;12.23;43.85
83559;BME280;73527;47.882;7.718;2024-02-23T10:13:20;96704.03;;;12.51;43.27
83559;BME280;73527;47.882;7.718;2024-02-23T10:15:46;96700.44;;;12.79;42.70
83559;BME280;73527;47.882;7.718;2024-02-23T10:18:12;96697.19;;;12.99;43.09
83559;BME280;73527;47.882;7.718;2024-02-23T10:20:37;96688.31;;;13.58;41.53
83559;BME280;73527;47.882;7.718;2024-02-23T10:23:04;96697.00;;;13.22;41.63
83559;BME280;73527;47.882;7.718;2024-02-23T10:25:29;96693.75;;;13.42;40.43
83559;BME280;73527;47.882;7.718;2024-02-23T10:27:55;96669.41;;;13.53;39.75
83559;BME280;73527;47.882;7.718;2024-02-23T10:30:20;96670.72;;;13.99;40.66
83559;BME280;73527;47.882;7.718;2024-02-23T10:32:46;96675.53;;;13.71;40.01
83559;BME280;73527;47.882;7.718;2024-02-23T10:35:15;96674.69;;;14.24;39.51
83559;BME280;73527;47.882;7.718;2024-02-23T10:37:48;96667.72;;;13.96;41.06
83559;BME280;73527;47.882;7.718;2024-02-23T10:40:16;96670.41;;;14.28;39.24
83559;BME280;73527;47.882;7.718;2024-02-23T10:42:43;96650.59;;;13.80;39.81
83559;BME280;73527;47.882;7.718;2024-02-23T10:45:19;96661.81;;;13.99;40.44
83559;BME280;73527;47.882;7.718;2024-02-23T10:47:45;96660.19;;;13.06;40.95
83559;BME280;73527;47.882;7.718;2024-02-23T10:50:12;96663.72;;;13.50;40.13
83559;BME280;73527;47.882;7.718;2024-02-23T10:52:41;96666.53;;;13.38;41.17
83559;BME280;73527;47.882;7.718;2024-02-23T10:55:09;96665.00;;;13.04;42.28
83559;BME280;73527;47.882;7.718;2024-02-23T10:57:35;96678.94;;;13.01;41.14
83559;BME280;73527;47.882;7.718;2024-02-23T11:00:00;96678.94;;;12.79;41.77
83559;BME280;73527;47.882;7.718;2024-02-23T11:02:27;96656.28;;;12.75;41.56
83559;BME280;73527;47.882;7.718;2024-02-23T11:04:55;96665.63;;;13.28;41.49
83559;BME280;73527;47.882;7.718;2024-02-23T11:07:22;96663.34;;;13.63;40.56
83559;BME280;73527;47.882;7.718;2024-02-23T11:09:51;96665.47;;;13.61;40.35
83559;BME280;73527;47.882;7.718;2024-02-23T11:12:24;96650.91;;;13.84;41.03
83559;BME280;73527;47.882;7.718;2024-02-23T11:14:50;96641.00;;;14.53;40.20
83559;BME280;73527;47.882;7.718;2024-02-23T11:17:18;96662.94;;;13.28;41.36
83559;BME280;73527;47.882;7.718;2024-02-23T11:19:49;96672.59;;;13.29;42.06
83559;BME280;73527;47.882;7.718;2024-02-23T11:22:26;96668.38;;;14.40;41.23
83559;BME280;73527;47.882;7.718;2024-02-23T11:24:53;96669.41;;;14.07;40.92
83559;BME280;73527;47.882;7.718;2024-02-23T11:27:18;96678.47;;;13.69;41.53
83559;BME280;73527;47.882;7.718;2024-02-23T11:29:47;96672.88;;;12.89;43.33
83559;BME280;73527;47.882;7.718;2024-02-23T11:32:16;96665.44;;;13.34;41.29
83559;BME280;73527;47.882;7.718;2024-02-23T11:34:54;96661.09;;;13.33;41.39
83559;BME280;73527;47.882;7.718;2024-02-23T11:37:20;96650.88;;;14.79;40.53
83559;BME280;73527;47.882;7.718;2024-02-23T11:39:46;96660.50;;;14.65;38.52
83559;BME280;73527;47.882;7.718;2024-02-23T11:42:12;96648.00;;;13.42;40.00
83559;BME280;73527;47.882;7.718;2024-02-23T11:44:37;96653.25;;;14.07;39.91
83559;BME280;73527;47.882;7.718;2024-02-23T11:47:02;96649.38;;;14.25;39.57
83559;BME280;73527;47.882;7.718;2024-02-23T11:49:28;96648.28;;;14.94;39.48
83559;BME280;73527;47.882;7.718;2024-02-23T11:51:54;96660.03;;;14.09;39.86
83559;BME280;73527;47.882;7.718;2024-02-23T11:54:20;96659.16;;;13.50;40.93
83559;BME280;73527;47.882;7.718;2024-02-23T11:56:47;96650.25;;;14.62;40.77
83559;BME280;73527;47.882;7.718;2024-02-23T11:59:14;96630.50;;;14.56;39.50
83559;BME280;73527;47.882;7.718;2024-02-23T12:01:39;96635.69;;;15.10;39.83
83559;BME280;73527;47.882;7.718;2024-02-23T12:04:04;96629.69;;;15.03;38.91
83559;BME280;73527;47.882;7.718;2024-02-23T12:06:30;96635.75;;;14.73;38.64
83559;BME280;73527;47.882;7.718;2024-02-23T12:08:57;96633.81;;;13.73;41.04
83559;BME280;73527;47.882;7.718;2024-02-23T12:11:23;96642.44;;;13.05;41.86
83559;BME280;73527;47.882;7.718;2024-02-23T12:13:48;96632.28;;;13.55;41.57
83559;BME280;73527;47.882;7.718;2024-02-23T12:16:16;96618.94;;;13.92;41.31
83559;BME280;73527;47.882;7.718;2024-02-23T12:18:41;96632.50;;;14.02;41.29
83559;BME280;73527;47.882;7.718;2024-02-23T12:21:08;96623.72;;;14.17;40.75
83559;BME280;73527;47.882;7.718;2024-02-23T12:23:44;96624.66;;;14.33;41.09
83559;BME280;73527;47.882;7.718;2024-02-23T12:26:10;96627.09;;;14.71;40.13
83559;BME280;73527;47.882;7.718;2024-02-23T12:28:38;96629.59;;;12.90;42.20
83559;BME280;73527;47.882;7.718;2024-02-23T12:31:04;96634.59;;;14.00;41.55
83559;BME280;73527;47.882;7.718;2024-02-23T12:33:34;96632.78;;;14.06;41.95
83559;BME280;73527;47.882;7.718;2024-02-23T12:36:00;96632.50;;;14.34;41.64
83559;BME280;73527;47.882;7.718;2024-02-23T12:38:26;96628.25;;;14.12;40.44
83559;BME280;73527;47.882;7.718;2024-02-23T12:40:52;96618.00;;;14.40;40.36
83559;BME280;73527;47.882;7.718;2024-02-23T12:43:18;96623.41;;;14.87;40.66
83559;BME280;73527;47.882;7.718;2024-02-23T12:45:43;96615.81;;;15.36;39.19
83559;BME280;73527;47.882;7.718;2024-02-23T12:48:10;96601.09;;;15.79;38.15
83559;BME280;73527;47.882;7.718;2024-02-23T12:50:35;96616.19;;;15.65;39.17
83559;BME280;73527;47.882;7.718;2024-02-23T12:53:02;96606.38;;;15.34;37.80
83559;BME280;73527;47.882;7.718;2024-02-23T12:55:27;96611.09;;;16.04;39.30
83559;BME280;73527;47.882;7.718;2024-02-23T12:57:52;96593.00;;;15.99;37.03
83559;BME280;73527;47.882;7.718;2024-02-23T13:00:18;96604.34;;;16.01;38.14
83559;BME280;73527;47.882;7.718;2024-02-23T13:02:44;96606.78;;;16.08;36.96